Current Conditions
Overcast
Conditions



Pressure
1023.92 (hPa) - 30.24 (inHG)
Visibility

10.0 (km) - 6.2 (miles)
Temperature
5  °C
Temperature
2  °C
Dewpoint
81  %
 Humidity
Wind Speed
4.5  m/s
10  mph
16  km/h
9  kts
Wind Direction
N
45°
E
90°
135°
S
180°
225°
W
270°
315°
 350°

Due North
Airport Data
EBDT
Schaffen Airfield
Metar :EBDT 262155Z AUTO 35009KT 9999 OVC030/// 05/02 Q1024 BLU
Thu 26th January 22:55 pm
Raw Metar Info
Raw METAR is the most common format in the world for the transmission of observational weather data. It is highly standardized through the International Civil Aviation Organization (ICAO), which allows it to be understood throughout most of the world.
API Info
Data Provided by
https://www.checkwx.com/weather/EBDT

Aviation Weather providing METAR, TAF, AIRMET, SIGMET and OUTLOOK Weather Reports
© Info
CSS/SVG/PHP scripts were developed by weather34 for use in the weather34 template © 2015-2023

Guide Info provided by Metar-Wikipedia